createdAt,value
2019-04-10T00:01:21.555Z,99.90
2019-04-10T00:03:50.384Z,99.90
2019-04-10T00:06:18.791Z,99.90
2019-04-10T00:08:47.372Z,99.90
2019-04-10T00:11:16.472Z,99.90
2019-04-10T00:13:44.939Z,99.90
2019-04-10T00:16:13.849Z,99.90
2019-04-10T00:18:42.166Z,99.90
2019-04-10T00:21:11.198Z,99.90
2019-04-10T00:23:39.483Z,99.90
2019-04-10T00:26:07.866Z,99.90
2019-04-10T00:28:35.919Z,99.90
2019-04-10T00:31:03.908Z,99.90
2019-04-10T00:33:32.640Z,99.90
2019-04-10T00:36:01.618Z,99.90
2019-04-10T00:38:29.676Z,99.90
2019-04-10T00:40:57.663Z,99.90
2019-04-10T00:43:26.706Z,99.90
2019-04-10T00:45:54.893Z,99.90
2019-04-10T00:48:23.850Z,99.90
2019-04-10T00:50:52.934Z,99.90
2019-04-10T00:53:21.253Z,99.90
2019-04-10T00:55:50.337Z,99.90
2019-04-10T00:58:18.484Z,99.90
2019-04-10T01:00:47.516Z,99.90
2019-04-10T01:03:35.812Z,99.90
2019-04-10T01:06:04.046Z,99.90
2019-04-10T01:08:32.634Z,99.90
2019-04-10T01:11:01.106Z,99.90
2019-04-10T01:13:29.304Z,99.90
2019-04-10T01:15:58.620Z,99.90
2019-04-10T01:18:27.057Z,99.90
2019-04-10T01:20:55.689Z,99.90
2019-04-10T01:23:24.616Z,99.90
2019-04-10T01:25:52.692Z,99.90
2019-04-10T01:28:20.802Z,99.90
2019-04-10T01:30:48.747Z,99.90
2019-04-10T01:33:16.641Z,99.90
2019-04-10T01:35:44.687Z,99.90
2019-04-10T01:38:13.444Z,99.90
2019-04-10T01:40:41.427Z,99.90
2019-04-10T01:43:13.300Z,99.90
2019-04-10T01:45:39.810Z,99.90
2019-04-10T01:48:07.985Z,99.90
2019-04-10T01:50:36.776Z,99.90
2019-04-10T01:53:05.611Z,99.90
2019-04-10T01:55:34.697Z,99.90
2019-04-10T01:58:06.888Z,99.90
2019-04-10T02:00:35.467Z,99.90
2019-04-10T02:03:03.530Z,99.90
2019-04-10T02:05:32.866Z,99.90
2019-04-10T02:08:07.923Z,99.90
2019-04-10T02:10:30.635Z,99.90
2019-04-10T02:12:59.061Z,99.90
2019-04-10T02:15:28.060Z,99.90
2019-04-10T02:17:56.899Z,99.90
2019-04-10T02:20:25.345Z,99.90
2019-04-10T02:22:54.063Z,99.90
2019-04-10T02:25:22.252Z,99.90
2019-04-10T02:27:50.885Z,99.90
2019-04-10T02:30:19.767Z,99.90
2019-04-10T02:32:50.270Z,99.90
2019-04-10T02:35:20.257Z,99.90
2019-04-10T02:37:52.496Z,99.90
2019-04-10T02:40:19.323Z,99.90
2019-04-10T02:42:48.851Z,99.90
2019-04-10T02:45:18.949Z,99.90
2019-04-10T02:47:47.553Z,99.90
2019-04-10T02:50:16.563Z,99.90
2019-04-10T02:52:45.926Z,99.90
2019-04-10T02:55:14.759Z,99.90
2019-04-10T02:57:43.654Z,99.90
2019-04-10T03:00:13.890Z,99.90
2019-04-10T03:02:42.166Z,99.90
2019-04-10T03:05:10.794Z,99.90
2019-04-10T03:07:40.349Z,99.90
2019-04-10T03:10:23.271Z,99.90
2019-04-10T03:12:40.975Z,99.90
2019-04-10T03:15:10.661Z,99.90
2019-04-10T03:17:40.088Z,99.90
2019-04-10T03:20:08.164Z,99.90
2019-04-10T03:22:36.665Z,99.90
2019-04-10T03:25:04.921Z,99.90
2019-04-10T03:27:32.922Z,99.90
2019-04-10T03:30:00.995Z,99.90
2019-04-10T03:32:51.721Z,99.90
2019-04-10T03:35:22.813Z,99.90
2019-04-10T03:37:50.866Z,99.90
2019-04-10T03:40:19.547Z,99.90
2019-04-10T03:42:48.215Z,99.90
2019-04-10T03:45:16.085Z,99.90
2019-04-10T03:47:44.069Z,99.90
2019-04-10T03:50:11.979Z,99.90
2019-04-10T03:52:39.853Z,99.90
2019-04-10T03:55:08.400Z,99.90
2019-04-10T03:57:36.497Z,99.90
2019-04-10T04:00:05.751Z,99.90
2019-04-10T04:02:34.095Z,99.90
2019-04-10T04:05:02.619Z,99.90
2019-04-10T04:07:30.564Z,99.90
2019-04-10T04:09:58.551Z,99.90
2019-04-10T04:12:26.664Z,99.90
2019-04-10T04:14:54.956Z,99.90
2019-04-10T04:17:24.135Z,99.90
2019-04-10T04:19:52.604Z,99.90
2019-04-10T04:22:20.928Z,99.90
2019-04-10T04:24:49.062Z,99.90
2019-04-10T04:27:17.548Z,99.90
2019-04-10T04:29:47.526Z,99.90
2019-04-10T04:32:15.688Z,99.90
2019-04-10T04:34:43.610Z,99.90
2019-04-10T04:37:12.340Z,99.90
2019-04-10T04:39:40.470Z,99.90
2019-04-10T04:42:09.248Z,99.90
2019-04-10T04:44:37.740Z,99.90
2019-04-10T04:47:06.342Z,99.90
2019-04-10T04:49:35.800Z,99.90
2019-04-10T04:52:03.841Z,99.90
2019-04-10T04:54:32.915Z,99.90
2019-04-10T04:57:01.293Z,99.90
2019-04-10T04:59:29.354Z,99.90
2019-04-10T05:01:57.882Z,99.90
2019-04-10T05:04:26.985Z,99.90
2019-04-10T05:06:55.568Z,99.90
2019-04-10T05:09:31.053Z,99.90
2019-04-10T05:11:54.832Z,99.90
2019-04-10T05:14:23.842Z,99.90
2019-04-10T05:16:52.092Z,99.90
2019-04-10T05:19:21.100Z,99.90
2019-04-10T05:21:49.817Z,99.90
2019-04-10T05:24:17.933Z,99.90
2019-04-10T05:26:46.763Z,99.90
2019-04-10T05:29:15.361Z,99.90
2019-04-10T05:31:43.423Z,99.90
2019-04-10T05:34:11.550Z,99.90
2019-04-10T05:36:40.214Z,99.90
2019-04-10T05:39:08.562Z,99.90
2019-04-10T05:41:37.829Z,99.90
2019-04-10T05:44:05.828Z,99.90
2019-04-10T05:46:34.408Z,99.90
2019-04-10T05:49:02.659Z,99.90
2019-04-10T05:51:30.902Z,99.90
2019-04-10T05:54:00.068Z,99.90
2019-04-10T05:56:28.114Z,99.90
2019-04-10T05:58:56.670Z,99.90
2019-04-10T06:01:32.325Z,99.90
2019-04-10T06:03:54.951Z,99.90
2019-04-10T06:06:24.157Z,99.90
2019-04-10T06:08:52.326Z,99.90
2019-04-10T06:11:20.608Z,99.90
2019-04-10T06:13:48.855Z,99.90
2019-04-10T06:16:17.358Z,99.90
2019-04-10T06:18:45.864Z,99.90
2019-04-10T06:21:14.654Z,99.90
2019-04-10T06:23:43.436Z,99.90
2019-04-10T06:26:12.620Z,99.90
2019-04-10T06:28:42.211Z,99.90
2019-04-10T06:31:10.681Z,99.90
2019-04-10T06:33:38.950Z,99.90
2019-04-10T06:36:07.030Z,99.90
2019-04-10T06:38:35.256Z,99.90
2019-04-10T06:41:04.485Z,99.90
2019-04-10T06:43:32.985Z,99.90
2019-04-10T06:46:01.045Z,99.90
2019-04-10T06:48:29.246Z,99.90
2019-04-10T06:50:57.408Z,99.90
2019-04-10T06:53:25.478Z,99.90
2019-04-10T06:55:54.455Z,99.90
2019-04-10T06:58:23.651Z,99.90
2019-04-10T07:00:53.847Z,99.90
2019-04-10T07:03:21.586Z,99.90
2019-04-10T07:06:02.402Z,99.90
2019-04-10T07:08:23.939Z,99.90
2019-04-10T07:10:57.807Z,99.90
2019-04-10T07:13:21.402Z,99.90
2019-04-10T07:15:49.785Z,99.90
2019-04-10T07:18:20.278Z,99.90
2019-04-10T07:20:48.991Z,99.90
2019-04-10T07:23:22.403Z,99.90
2019-04-10T07:25:48.341Z,99.90
2019-04-10T07:28:17.417Z,99.90
2019-04-10T07:30:45.934Z,99.90
2019-04-10T07:33:16.595Z,99.90
2019-04-10T07:35:44.343Z,99.90
2019-04-10T07:38:12.563Z,99.90
2019-04-10T07:40:40.712Z,99.90
2019-04-10T07:43:09.325Z,99.90
2019-04-10T07:45:37.368Z,99.90
2019-04-10T07:48:06.654Z,99.90
2019-04-10T07:50:34.894Z,99.90
2019-04-10T07:53:03.074Z,99.90
2019-04-10T07:55:31.375Z,99.90
2019-04-10T07:57:59.429Z,99.90
2019-04-10T08:00:28.548Z,99.90
2019-04-10T08:02:57.492Z,99.90
2019-04-10T08:05:25.572Z,99.90
2019-04-10T08:07:55.931Z,99.90
2019-04-10T08:10:24.224Z,99.90
2019-04-10T08:12:54.207Z,99.90
2019-04-10T08:15:23.047Z,99.90
2019-04-10T08:17:51.444Z,99.90
2019-04-10T08:20:19.499Z,99.90
2019-04-10T08:22:47.422Z,99.90
2019-04-10T08:25:16.290Z,99.90
2019-04-10T08:27:44.473Z,99.90
2019-04-10T08:30:12.472Z,99.90
2019-04-10T08:32:54.677Z,99.90
2019-04-10T08:35:11.216Z,99.90
2019-04-10T08:37:40.975Z,99.90
2019-04-10T08:40:09.693Z,99.90
2019-04-10T08:42:38.007Z,99.90
2019-04-10T08:45:07.124Z,99.90
2019-04-10T08:47:35.382Z,99.90
2019-04-10T08:50:05.504Z,99.90
2019-04-10T08:52:34.716Z,99.90
2019-04-10T08:55:03.815Z,99.90
2019-04-10T08:57:31.964Z,99.90
2019-04-10T09:00:00.457Z,99.90
2019-04-10T09:02:28.586Z,99.90
2019-04-10T09:04:57.349Z,99.90
2019-04-10T09:07:26.342Z,99.90
2019-04-10T09:09:54.584Z,99.90
2019-04-10T09:12:22.714Z,99.90
2019-04-10T09:14:51.689Z,99.90
2019-04-10T09:17:19.915Z,99.90
2019-04-10T09:19:47.948Z,99.90
2019-04-10T09:22:16.294Z,99.90
2019-04-10T09:24:46.717Z,99.90
2019-04-10T09:27:15.116Z,99.90
2019-04-10T09:29:43.166Z,99.90
2019-04-10T09:32:11.241Z,98.80
2019-04-10T09:34:40.061Z,96.40
2019-04-10T09:37:08.197Z,94.80
2019-04-10T09:39:36.137Z,93.00
2019-04-10T09:42:04.457Z,91.10
2019-04-10T09:44:32.441Z,87.00
2019-04-10T09:47:00.805Z,84.70
2019-04-10T09:49:37.672Z,88.80
2019-04-10T09:51:58.787Z,90.10
2019-04-10T09:54:28.156Z,91.20
2019-04-10T09:56:57.112Z,91.20
2019-04-10T09:59:33.188Z,91.60
2019-04-10T10:01:55.362Z,93.70
2019-04-10T10:04:23.920Z,93.00
2019-04-10T10:06:51.903Z,92.30
2019-04-10T10:09:20.012Z,92.90
2019-04-10T10:11:49.126Z,91.00
2019-04-10T10:14:18.671Z,92.40
2019-04-10T10:16:48.332Z,91.90
2019-04-10T10:19:16.659Z,91.40
2019-04-10T10:21:44.932Z,91.80
2019-04-10T10:24:14.082Z,91.70
2019-04-10T10:26:44.294Z,94.10
2019-04-10T10:29:13.324Z,92.30
2019-04-10T10:31:41.983Z,91.20
2019-04-10T10:34:10.329Z,93.00
2019-04-10T10:36:41.918Z,92.60
2019-04-10T10:39:19.157Z,92.10
2019-04-10T10:41:47.271Z,90.00
2019-04-10T10:44:15.288Z,88.40
2019-04-10T10:46:43.983Z,88.00
2019-04-10T10:49:12.602Z,86.80
2019-04-10T10:51:40.674Z,87.20
2019-04-10T10:54:09.096Z,85.50
2019-04-10T10:56:38.204Z,87.40
2019-04-10T10:59:06.316Z,82.00
2019-04-10T11:01:35.827Z,84.80
2019-04-10T11:04:04.716Z,76.90
2019-04-10T11:06:33.145Z,77.90
2019-04-10T11:09:01.949Z,71.10
2019-04-10T11:11:30.816Z,68.20
2019-04-10T11:13:59.006Z,67.20
2019-04-10T11:16:27.745Z,65.30
2019-04-10T11:18:57.643Z,61.50
2019-04-10T11:21:27.381Z,60.70
2019-04-10T11:23:55.647Z,67.30
2019-04-10T11:26:25.647Z,63.80
2019-04-10T11:28:55.738Z,62.20
2019-04-10T11:31:25.087Z,57.90
2019-04-10T11:33:55.847Z,56.20
2019-04-10T11:36:24.063Z,62.00
2019-04-10T11:38:54.858Z,61.50
2019-04-10T11:41:23.321Z,63.40
2019-04-10T11:43:52.756Z,66.10
2019-04-10T11:46:22.741Z,64.10
2019-04-10T11:48:54.564Z,64.20
2019-04-10T11:51:23.498Z,60.70
2019-04-10T11:53:56.421Z,63.30
2019-04-10T11:56:23.512Z,66.20
2019-04-10T11:58:56.263Z,61.20
2019-04-10T12:01:23.450Z,61.70
2019-04-10T12:03:55.020Z,61.30
2019-04-10T12:06:25.089Z,62.20
2019-04-10T12:09:16.334Z,62.10
2019-04-10T12:11:23.027Z,61.20
2019-04-10T12:13:51.184Z,60.40
2019-04-10T12:16:19.107Z,58.90
2019-04-10T12:18:47.144Z,60.10
2019-04-10T12:21:15.749Z,59.90
2019-04-10T12:23:45.229Z,50.00
2019-04-10T12:26:13.812Z,49.60
2019-04-10T12:28:42.332Z,50.30
2019-04-10T12:31:11.947Z,44.40
2019-04-10T12:33:40.459Z,42.10
2019-04-10T12:36:10.307Z,38.50
2019-04-10T12:38:39.419Z,36.70
2019-04-10T12:41:07.446Z,40.90
2019-04-10T12:43:35.347Z,41.10
2019-04-10T12:46:04.448Z,42.70
2019-04-10T12:48:32.808Z,41.90
2019-04-10T12:51:01.379Z,38.30
2019-04-10T12:53:29.646Z,41.40
2019-04-10T12:55:57.810Z,43.90
2019-04-10T12:58:26.634Z,46.30
2019-04-10T13:00:54.729Z,45.50
2019-04-10T13:03:23.145Z,47.50
2019-04-10T13:05:51.553Z,48.10
2019-04-10T13:08:25.649Z,45.10
2019-04-10T13:10:51.880Z,48.70
2019-04-10T13:13:20.094Z,47.60
2019-04-10T13:15:48.210Z,48.70
2019-04-10T13:18:16.623Z,47.20
2019-04-10T13:20:44.732Z,50.00
2019-04-10T13:23:14.886Z,48.20
2019-04-10T13:25:46.367Z,46.30
2019-04-10T13:28:12.786Z,46.40
2019-04-10T13:30:48.867Z,44.40
2019-04-10T13:33:12.153Z,45.30
2019-04-10T13:35:40.193Z,47.40
2019-04-10T13:38:08.792Z,47.90
2019-04-10T13:40:37.520Z,51.00
2019-04-10T13:43:05.902Z,54.10
2019-04-10T13:45:35.312Z,49.10
2019-04-10T13:48:03.968Z,50.90
2019-04-10T13:50:32.738Z,55.30
2019-04-10T13:53:02.162Z,53.00
2019-04-10T13:55:30.574Z,50.20
2019-04-10T13:58:00.069Z,51.50
2019-04-10T14:00:35.573Z,50.50
2019-04-10T14:03:04.046Z,52.60
2019-04-10T14:05:33.898Z,55.40
2019-04-10T14:08:02.220Z,58.20
2019-04-10T14:10:31.228Z,57.50
2019-04-10T14:12:59.679Z,54.00
2019-04-10T14:15:30.198Z,58.70
2019-04-10T14:17:57.769Z,56.60
2019-04-10T14:20:26.957Z,61.10
2019-04-10T14:23:14.728Z,60.00
2019-04-10T14:25:56.704Z,61.90
2019-04-10T14:28:27.076Z,61.80
2019-04-10T14:30:57.822Z,63.50
2019-04-10T14:33:26.222Z,62.50
2019-04-10T14:35:55.700Z,64.10
2019-04-10T14:38:25.198Z,63.70
2019-04-10T14:40:53.696Z,64.00
2019-04-10T14:43:21.580Z,64.10
2019-04-10T14:45:49.938Z,66.30
2019-04-10T14:48:20.178Z,66.40
2019-04-10T14:50:49.183Z,66.40
2019-04-10T14:53:17.434Z,66.50
2019-04-10T14:55:45.951Z,68.10
2019-04-10T14:58:22.755Z,68.90
2019-04-10T15:00:50.303Z,68.00
2019-04-10T15:03:20.193Z,67.60
2019-04-10T15:05:51.470Z,67.40
2019-04-10T15:08:19.724Z,68.70
2019-04-10T15:10:47.891Z,68.80
2019-04-10T15:13:19.732Z,69.80
2019-04-10T15:15:45.766Z,70.10
2019-04-10T15:18:14.919Z,69.40
2019-04-10T15:20:43.259Z,68.60
2019-04-10T15:23:11.910Z,69.30
2019-04-10T15:25:40.015Z,68.90
2019-04-10T15:28:08.547Z,70.00
2019-04-10T15:30:37.435Z,68.90
2019-04-10T15:33:06.588Z,69.20
2019-04-10T15:35:34.874Z,68.20
2019-04-10T15:38:03.949Z,69.30
2019-04-10T15:40:32.307Z,69.40
2019-04-10T15:43:00.798Z,70.00
2019-04-10T15:45:30.097Z,72.20
2019-04-10T15:47:59.986Z,73.50
2019-04-10T15:50:28.681Z,69.90
2019-04-10T15:52:57.979Z,69.40
2019-04-10T15:55:26.093Z,66.90
2019-04-10T15:57:57.893Z,70.30
2019-04-10T16:00:23.812Z,75.20
2019-04-10T16:02:51.806Z,72.50
2019-04-10T16:05:21.612Z,74.00
2019-04-10T16:07:51.025Z,73.40
2019-04-10T16:10:41.244Z,65.60
2019-04-10T16:13:44.424Z,66.40
2019-04-10T16:16:42.287Z,66.50
2019-04-10T16:19:22.407Z,66.00
2019-04-10T16:21:50.750Z,67.20
2019-04-10T16:24:18.747Z,69.00
2019-04-10T16:26:47.495Z,69.30
2019-04-10T16:29:15.985Z,69.30
2019-04-10T16:31:44.406Z,63.60
2019-04-10T16:34:13.536Z,67.30
2019-04-10T16:36:41.681Z,65.30
2019-04-10T16:39:13.457Z,67.60
2019-04-10T16:41:42.020Z,72.30
2019-04-10T16:44:10.961Z,72.60
2019-04-10T16:46:39.023Z,74.40
2019-04-10T16:49:08.497Z,73.50
2019-04-10T16:51:36.641Z,71.20
2019-04-10T16:54:04.652Z,72.10
2019-04-10T16:56:33.793Z,72.10
2019-04-10T16:59:02.521Z,74.20
2019-04-10T17:01:31.181Z,71.60
2019-04-10T17:03:59.045Z,69.80
2019-04-10T17:06:27.987Z,69.20
2019-04-10T17:08:56.471Z,69.20
2019-04-10T17:11:25.105Z,64.70
2019-04-10T17:13:53.294Z,67.80
2019-04-10T17:16:21.842Z,66.00
2019-04-10T17:18:51.614Z,66.00
2019-04-10T17:21:19.964Z,69.10
2019-04-10T17:23:49.083Z,67.00
2019-04-10T17:26:17.305Z,69.00
2019-04-10T17:28:45.686Z,71.00
2019-04-10T17:31:14.226Z,70.10
2019-04-10T17:33:43.705Z,68.00
2019-04-10T17:36:12.068Z,66.80
2019-04-10T17:38:40.519Z,66.10
2019-04-10T17:41:09.160Z,69.80
2019-04-10T17:43:37.443Z,65.70
2019-04-10T17:46:05.581Z,69.00
2019-04-10T17:48:34.919Z,68.30
2019-04-10T17:51:05.721Z,68.30
2019-04-10T17:53:35.626Z,66.20
2019-04-10T17:56:04.281Z,64.90
2019-04-10T17:58:32.455Z,66.10
2019-04-10T18:01:02.481Z,65.30
2019-04-10T18:03:42.929Z,64.80
2019-04-10T18:06:01.377Z,63.50
2019-04-10T18:08:30.098Z,66.00
2019-04-10T18:10:58.802Z,64.80
2019-04-10T18:13:26.878Z,66.80
2019-04-10T18:15:55.557Z,65.20
2019-04-10T18:18:24.877Z,63.90
2019-04-10T18:20:53.050Z,66.00
2019-04-10T18:23:21.117Z,66.00
2019-04-10T18:25:49.912Z,63.20
2019-04-10T18:28:19.139Z,64.00
2019-04-10T18:30:48.199Z,61.90
2019-04-10T18:33:16.449Z,60.50
2019-04-10T18:35:44.359Z,60.00
2019-04-10T18:38:13.272Z,57.90
2019-04-10T18:40:52.128Z,61.30
2019-04-10T18:43:11.889Z,60.30
2019-04-10T18:45:42.083Z,61.10
2019-04-10T18:48:10.401Z,59.70
2019-04-10T18:50:38.496Z,48.30
2019-04-10T18:53:06.385Z,41.70
2019-04-10T18:55:36.439Z,38.00
2019-04-10T18:58:07.453Z,39.30
2019-04-10T19:00:54.607Z,38.60
2019-04-10T19:03:29.901Z,44.60
2019-04-10T19:06:00.420Z,43.10
2019-04-10T19:08:28.487Z,43.60
2019-04-10T19:11:14.262Z,44.30
2019-04-10T19:13:26.631Z,44.30
2019-04-10T19:15:55.534Z,41.50
2019-04-10T19:18:23.755Z,41.90
2019-04-10T19:20:51.780Z,40.50
2019-04-10T19:23:19.820Z,37.20
2019-04-10T19:25:47.763Z,37.80
2019-04-10T19:28:27.678Z,36.10
2019-04-10T19:30:51.207Z,35.70
2019-04-10T19:33:19.591Z,34.80
2019-04-10T19:35:47.716Z,34.70
2019-04-10T19:38:16.844Z,34.70
2019-04-10T19:40:45.819Z,34.90
2019-04-10T19:43:13.994Z,34.50
2019-04-10T19:45:42.128Z,35.30
2019-04-10T19:48:10.875Z,36.00
2019-04-10T19:50:39.573Z,35.50
2019-04-10T19:53:08.881Z,36.80
2019-04-10T19:55:38.186Z,36.70
2019-04-10T19:58:06.151Z,36.60
2019-04-10T20:00:36.539Z,37.00
2019-04-10T20:03:05.732Z,37.80
2019-04-10T20:05:34.115Z,38.30
2019-04-10T20:08:02.101Z,38.60
2019-04-10T20:10:30.126Z,39.30
2019-04-10T20:12:59.245Z,40.50
2019-04-10T20:15:28.812Z,41.00
2019-04-10T20:17:56.946Z,41.50
2019-04-10T20:20:24.930Z,42.20
2019-04-10T20:22:55.626Z,42.50
2019-04-10T20:25:32.533Z,43.10
2019-04-10T20:28:01.199Z,44.40
2019-04-10T20:30:31.070Z,48.90
2019-04-10T20:32:59.112Z,47.70
2019-04-10T20:35:27.074Z,48.40
2019-04-10T20:37:55.359Z,51.80
2019-04-10T20:40:23.554Z,59.70
2019-04-10T20:42:51.492Z,55.20
2019-04-10T20:45:21.108Z,53.00
2019-04-10T20:47:49.800Z,58.40
2019-04-10T20:50:18.002Z,54.70
2019-04-10T20:52:47.254Z,58.40
2019-04-10T20:55:15.422Z,54.80
2019-04-10T20:57:43.789Z,60.40
2019-04-10T21:00:20.430Z,56.80
2019-04-10T21:02:48.870Z,54.20
2019-04-10T21:05:17.920Z,52.20
2019-04-10T21:07:46.274Z,57.50
2019-04-10T21:10:15.035Z,55.10
2019-04-10T21:12:44.113Z,50.90
2019-04-10T21:15:13.188Z,50.30
2019-04-10T21:17:42.447Z,52.00
2019-04-10T21:20:13.119Z,50.60
2019-04-10T21:22:40.497Z,51.60
2019-04-10T21:25:08.559Z,48.30
2019-04-10T21:27:37.453Z,47.40
2019-04-10T21:30:31.755Z,45.60
2019-04-10T21:33:08.939Z,40.60
2019-04-10T21:35:37.487Z,40.00
2019-04-10T21:38:06.841Z,37.50
2019-04-10T21:40:34.969Z,36.60
2019-04-10T21:43:03.753Z,35.00
2019-04-10T21:45:32.762Z,36.10
2019-04-10T21:48:02.064Z,34.00
2019-04-10T21:50:30.125Z,34.20
2019-04-10T21:52:58.099Z,33.00
2019-04-10T21:55:26.878Z,34.80
2019-04-10T21:57:55.425Z,33.90
2019-04-10T22:00:42.913Z,34.90
2019-04-10T22:03:11.284Z,34.90
2019-04-10T22:05:41.083Z,34.00
2019-04-10T22:08:21.225Z,34.20
2019-04-10T22:10:50.291Z,34.00
2019-04-10T22:13:19.781Z,34.50
2019-04-10T22:15:48.975Z,35.70
2019-04-10T22:18:17.123Z,34.80
2019-04-10T22:20:45.819Z,34.60
2019-04-10T22:23:13.846Z,33.00
2019-04-10T22:25:41.752Z,35.00
2019-04-10T22:28:09.734Z,33.80
2019-04-10T22:30:37.863Z,34.10
2019-04-10T22:33:06.128Z,33.10
2019-04-10T22:35:33.999Z,35.30
2019-04-10T22:38:02.625Z,33.30
2019-04-10T22:40:31.230Z,33.80
2019-04-10T22:42:59.586Z,34.60
2019-04-10T22:45:31.016Z,34.50
2019-04-10T22:47:59.158Z,33.40
2019-04-10T22:50:27.524Z,34.50
2019-04-10T22:52:56.782Z,33.50
2019-04-10T22:55:26.057Z,32.90
2019-04-10T22:57:54.760Z,34.00
2019-04-10T23:00:32.632Z,33.90
2019-04-10T23:03:00.871Z,33.80
2019-04-10T23:05:29.379Z,34.00
2019-04-10T23:07:58.933Z,34.80
2019-04-10T23:10:27.153Z,33.90
2019-04-10T23:13:01.392Z,33.50
2019-04-10T23:15:25.759Z,34.50
2019-04-10T23:17:54.119Z,34.40
2019-04-10T23:20:21.955Z,34.30
2019-04-10T23:22:50.685Z,33.60
2019-04-10T23:25:18.627Z,34.50
2019-04-10T23:27:46.525Z,36.20
2019-04-10T23:30:17.213Z,40.90
2019-04-10T23:32:47.845Z,39.40
2019-04-10T23:35:17.119Z,38.80
2019-04-10T23:37:45.150Z,40.20
2019-04-10T23:40:14.153Z,39.30
2019-04-10T23:42:44.167Z,37.00
2019-04-10T23:45:13.408Z,39.50
2019-04-10T23:47:42.359Z,41.40
2019-04-10T23:50:10.601Z,38.10
2019-04-10T23:52:38.532Z,41.80
2019-04-10T23:55:08.213Z,43.00
2019-04-10T23:57:36.172Z,46.10
